首页
METAR-TAF:

METAR-TAF

机场 :

腓特烈港机场

腓特烈港, 德国

纬度: 47-40N, 经度: 009-31E, 海拔: 416米

当前天气观测

该预报发布于31分钟前的04:20 UTC
风速3节,风向东转东北
温度 -1°C
湿度 100%
气压 1015 hPa
能见度10公里或以上

METAR: EDNY 190420Z AUTO 06003KT 9999 // FEW110/// SCT230/// M01/M01 Q1015

时间: 05:51 (04:51 UTC)

预报

该预报发布于5小时和51分钟前的23:00 UTC
预报有效从19日的 00点(UTC)到 19日的 24点(UTC)
风速3节,风向多变
能见度10公里或以上
多云层高于2500英尺

TAF: EDNY 182300Z 1900/1924 VRB03KT 9999 BKN025

超过4000个机场的气象观测和天气预报(METAR&TAF报告)。

可查询的气象台以黄色和红色小点在地图上表示。

将鼠标移到小点上方,可查看气象台名称。

然后点击查看天气观测和预报。

如需切换地图:点击带黑十字的绿色按钮放大地图;点击带横线的绿色按钮缩小地图;或者点击绿色箭头查看邻近地区的地图。


METAR-TAF: